sensor_id;sensor_type;location;lat;lon;timestamp;P1;durP1;ratioP1;P2;durP2;ratioP2
76155;SDS011;64906;51.290;7.348;2023-02-20T00:01:49;93.53;;;44.60;;
76155;SDS011;64906;51.290;7.348;2023-02-20T00:04:17;77.63;;;43.40;;
76155;SDS011;64906;51.290;7.348;2023-02-20T00:06:45;83.03;;;42.03;;
76155;SDS011;64906;51.290;7.348;2023-02-20T00:09:11;81.93;;;42.80;;
76155;SDS011;64906;51.290;7.348;2023-02-20T00:11:37;88.53;;;43.60;;
76155;SDS011;64906;51.290;7.348;2023-02-20T00:14:03;76.85;;;42.92;;
76155;SDS011;64906;51.290;7.348;2023-02-20T00:16:30;77.55;;;41.70;;
76155;SDS011;64906;51.290;7.348;2023-02-20T00:18:56;79.47;;;42.10;;
76155;SDS011;64906;51.290;7.348;2023-02-20T00:21:22;82.38;;;42.05;;
76155;SDS011;64906;51.290;7.348;2023-02-20T00:23:48;78.20;;;41.90;;
76155;SDS011;64906;51.290;7.348;2023-02-20T00:26:14;77.35;;;41.97;;
76155;SDS011;64906;51.290;7.348;2023-02-20T00:28:41;82.95;;;42.58;;
76155;SDS011;64906;51.290;7.348;2023-02-20T00:31:11;80.82;;;41.47;;
76155;SDS011;64906;51.290;7.348;2023-02-20T00:33:40;80.40;;;41.15;;
76155;SDS011;64906;51.290;7.348;2023-02-20T00:36:06;79.32;;;42.65;;
76155;SDS011;64906;51.290;7.348;2023-02-20T00:38:32;77.68;;;39.95;;
76155;SDS011;64906;51.290;7.348;2023-02-20T00:40:58;78.70;;;42.55;;
76155;SDS011;64906;51.290;7.348;2023-02-20T00:43:24;74.78;;;41.05;;
76155;SDS011;64906;51.290;7.348;2023-02-20T00:45:50;79.30;;;40.50;;
76155;SDS011;64906;51.290;7.348;2023-02-20T00:48:16;75.53;;;39.58;;
76155;SDS011;64906;51.290;7.348;2023-02-20T00:50:42;79.53;;;40.88;;
76155;SDS011;64906;51.290;7.348;2023-02-20T00:53:08;80.25;;;41.75;;
76155;SDS011;64906;51.290;7.348;2023-02-20T00:55:33;79.55;;;41.22;;
76155;SDS011;64906;51.290;7.348;2023-02-20T00:57:59;75.35;;;41.78;;
76155;SDS011;64906;51.290;7.348;2023-02-20T01:00:26;74.53;;;40.38;;
76155;SDS011;64906;51.290;7.348;2023-02-20T01:02:54;82.50;;;40.55;;
76155;SDS011;64906;51.290;7.348;2023-02-20T01:05:20;76.65;;;39.55;;
76155;SDS011;64906;51.290;7.348;2023-02-20T01:07:47;75.38;;;41.38;;
76155;SDS011;64906;51.290;7.348;2023-02-20T01:10:13;72.35;;;39.58;;
76155;SDS011;64906;51.290;7.348;2023-02-20T01:12:39;73.40;;;38.25;;
76155;SDS011;64906;51.290;7.348;2023-02-20T01:15:06;78.03;;;39.58;;
76155;SDS011;64906;51.290;7.348;2023-02-20T01:17:32;73.15;;;39.88;;
76155;SDS011;64906;51.290;7.348;2023-02-20T01:19:59;73.78;;;40.05;;
76155;SDS011;64906;51.290;7.348;2023-02-20T01:22:25;76.85;;;39.60;;
76155;SDS011;64906;51.290;7.348;2023-02-20T01:24:51;71.57;;;39.17;;
76155;SDS011;64906;51.290;7.348;2023-02-20T01:27:17;74.70;;;39.55;;
76155;SDS011;64906;51.290;7.348;2023-02-20T01:29:43;71.68;;;39.08;;
76155;SDS011;64906;51.290;7.348;2023-02-20T01:32:12;73.32;;;39.75;;
76155;SDS011;64906;51.290;7.348;2023-02-20T01:34:38;72.30;;;40.90;;
76155;SDS011;64906;51.290;7.348;2023-02-20T01:37:05;74.20;;;38.80;;
76155;SDS011;64906;51.290;7.348;2023-02-20T01:39:34;69.30;;;38.80;;
76155;SDS011;64906;51.290;7.348;2023-02-20T01:42:00;73.68;;;38.83;;
76155;SDS011;64906;51.290;7.348;2023-02-20T01:44:31;70.07;;;39.92;;
76155;SDS011;64906;51.290;7.348;2023-02-20T01:46:59;74.88;;;38.35;;
76155;SDS011;64906;51.290;7.348;2023-02-20T01:49:32;73.28;;;38.20;;
76155;SDS011;64906;51.290;7.348;2023-02-20T01:52:07;68.10;;;38.30;;
76155;SDS011;64906;51.290;7.348;2023-02-20T01:54:36;71.63;;;38.42;;
76155;SDS011;64906;51.290;7.348;2023-02-20T01:57:07;68.43;;;38.13;;
76155;SDS011;64906;51.290;7.348;2023-02-20T01:59:38;68.25;;;36.95;;
76155;SDS011;64906;51.290;7.348;2023-02-20T02:02:06;66.75;;;36.72;;
76155;SDS011;64906;51.290;7.348;2023-02-20T02:04:33;72.47;;;37.20;;
76155;SDS011;64906;51.290;7.348;2023-02-20T02:07:02;68.82;;;38.88;;
76155;SDS011;64906;51.290;7.348;2023-02-20T02:12:13;73.93;;;39.38;;
76155;SDS011;64906;51.290;7.348;2023-02-20T02:14:39;63.78;;;37.50;;
76155;SDS011;64906;51.290;7.348;2023-02-20T02:17:20;65.07;;;36.67;;
76155;SDS011;64906;51.290;7.348;2023-02-20T02:34:30;67.07;;;36.83;;
76155;SDS011;64906;51.290;7.348;2023-02-20T02:42:50;65.97;;;35.35;;
76155;SDS011;64906;51.290;7.348;2023-02-20T02:47:54;67.20;;;36.42;;
76155;SDS011;64906;51.290;7.348;2023-02-20T02:50:34;64.68;;;35.58;;
76155;SDS011;64906;51.290;7.348;2023-02-20T02:53:04;66.72;;;36.00;;
76155;SDS011;64906;51.290;7.348;2023-02-20T02:55:32;69.03;;;36.50;;
76155;SDS011;64906;51.290;7.348;2023-02-20T02:57:59;70.70;;;35.75;;
76155;SDS011;64906;51.290;7.348;2023-02-20T03:08:27;63.67;;;35.03;;
76155;SDS011;64906;51.290;7.348;2023-02-20T03:11:16;64.55;;;35.55;;
76155;SDS011;64906;51.290;7.348;2023-02-20T03:13:45;71.88;;;35.70;;
76155;SDS011;64906;51.290;7.348;2023-02-20T03:17:23;63.22;;;34.33;;
76155;SDS011;64906;51.290;7.348;2023-02-20T03:22:24;61.45;;;33.83;;
76155;SDS011;64906;51.290;7.348;2023-02-20T03:24:55;65.00;;;34.03;;
76155;SDS011;64906;51.290;7.348;2023-02-20T03:27:33;60.58;;;35.15;;
76155;SDS011;64906;51.290;7.348;2023-02-20T03:30:14;64.00;;;34.28;;
76155;SDS011;64906;51.290;7.348;2023-02-20T03:33:24;56.67;;;33.15;;
76155;SDS011;64906;51.290;7.348;2023-02-20T03:36:21;60.95;;;33.85;;
76155;SDS011;64906;51.290;7.348;2023-02-20T03:39:11;61.75;;;33.25;;
76155;SDS011;64906;51.290;7.348;2023-02-20T03:42:02;59.95;;;34.10;;
76155;SDS011;64906;51.290;7.348;2023-02-20T03:44:49;61.10;;;34.25;;
76155;SDS011;64906;51.290;7.348;2023-02-20T03:47:16;61.55;;;34.53;;
76155;SDS011;64906;51.290;7.348;2023-02-20T03:49:45;64.28;;;34.53;;
76155;SDS011;64906;51.290;7.348;2023-02-20T03:52:14;55.88;;;32.15;;
76155;SDS011;64906;51.290;7.348;2023-02-20T03:54:41;56.30;;;32.50;;
76155;SDS011;64906;51.290;7.348;2023-02-20T03:57:10;60.22;;;33.20;;
76155;SDS011;64906;51.290;7.348;2023-02-20T03:59:40;58.25;;;34.08;;
76155;SDS011;64906;51.290;7.348;2023-02-20T04:02:22;58.80;;;33.05;;
76155;SDS011;64906;51.290;7.348;2023-02-20T04:04:52;58.63;;;31.80;;
76155;SDS011;64906;51.290;7.348;2023-02-20T04:07:45;58.17;;;33.30;;
76155;SDS011;64906;51.290;7.348;2023-02-20T04:10:13;54.42;;;32.53;;
76155;SDS011;64906;51.290;7.348;2023-02-20T04:12:44;57.70;;;32.22;;
76155;SDS011;64906;51.290;7.348;2023-02-20T04:15:13;58.03;;;30.55;;
76155;SDS011;64906;51.290;7.348;2023-02-20T04:17:44;57.83;;;33.75;;
76155;SDS011;64906;51.290;7.348;2023-02-20T04:20:23;54.50;;;31.73;;
76155;SDS011;64906;51.290;7.348;2023-02-20T04:22:49;59.45;;;32.65;;
76155;SDS011;64906;51.290;7.348;2023-02-20T04:28:00;56.35;;;31.95;;
76155;SDS011;64906;51.290;7.348;2023-02-20T04:30:27;56.78;;;32.45;;
76155;SDS011;64906;51.290;7.348;2023-02-20T04:32:56;59.22;;;32.78;;
76155;SDS011;64906;51.290;7.348;2023-02-20T04:35:22;55.00;;;31.65;;
76155;SDS011;64906;51.290;7.348;2023-02-20T04:37:49;53.42;;;31.92;;
76155;SDS011;64906;51.290;7.348;2023-02-20T04:40:16;57.03;;;32.35;;
76155;SDS011;64906;51.290;7.348;2023-02-20T04:42:46;56.05;;;31.67;;
76155;SDS011;64906;51.290;7.348;2023-02-20T04:45:13;56.28;;;31.33;;
76155;SDS011;64906;51.290;7.348;2023-02-20T04:47:39;59.50;;;31.55;;
76155;SDS011;64906;51.290;7.348;2023-02-20T04:50:06;57.22;;;31.08;;
76155;SDS011;64906;51.290;7.348;2023-02-20T04:52:32;56.22;;;31.08;;
76155;SDS011;64906;51.290;7.348;2023-02-20T04:54:58;60.45;;;31.70;;
76155;SDS011;64906;51.290;7.348;2023-02-20T04:57:24;56.40;;;30.60;;
76155;SDS011;64906;51.290;7.348;2023-02-20T04:59:50;57.67;;;32.58;;
76155;SDS011;64906;51.290;7.348;2023-02-20T05:02:16;52.63;;;30.92;;
76155;SDS011;64906;51.290;7.348;2023-02-20T05:04:42;57.17;;;32.03;;
76155;SDS011;64906;51.290;7.348;2023-02-20T05:07:07;56.17;;;31.05;;
76155;SDS011;64906;51.290;7.348;2023-02-20T05:09:33;52.25;;;31.65;;
76155;SDS011;64906;51.290;7.348;2023-02-20T05:12:00;57.03;;;30.73;;
76155;SDS011;64906;51.290;7.348;2023-02-20T05:14:26;58.75;;;31.20;;
76155;SDS011;64906;51.290;7.348;2023-02-20T05:16:52;56.08;;;30.70;;
76155;SDS011;64906;51.290;7.348;2023-02-20T05:19:17;50.10;;;30.17;;
76155;SDS011;64906;51.290;7.348;2023-02-20T05:21:44;59.30;;;31.88;;
76155;SDS011;64906;51.290;7.348;2023-02-20T05:24:28;50.83;;;30.70;;
76155;SDS011;64906;51.290;7.348;2023-02-20T05:26:54;52.95;;;30.20;;
76155;SDS011;64906;51.290;7.348;2023-02-20T05:29:20;53.83;;;30.25;;
76155;SDS011;64906;51.290;7.348;2023-02-20T05:31:47;55.40;;;30.65;;
76155;SDS011;64906;51.290;7.348;2023-02-20T05:34:13;49.60;;;29.90;;
76155;SDS011;64906;51.290;7.348;2023-02-20T05:36:38;52.30;;;30.80;;
76155;SDS011;64906;51.290;7.348;2023-02-20T05:39:04;52.72;;;31.25;;
76155;SDS011;64906;51.290;7.348;2023-02-20T05:41:30;52.03;;;31.17;;
76155;SDS011;64906;51.290;7.348;2023-02-20T05:43:57;54.58;;;30.15;;
76155;SDS011;64906;51.290;7.348;2023-02-20T05:46:27;54.90;;;30.10;;
76155;SDS011;64906;51.290;7.348;2023-02-20T05:48:53;56.60;;;29.98;;
76155;SDS011;64906;51.290;7.348;2023-02-20T05:51:28;50.80;;;29.80;;
76155;SDS011;64906;51.290;7.348;2023-02-20T05:53:55;50.05;;;29.60;;
76155;SDS011;64906;51.290;7.348;2023-02-20T05:56:21;50.65;;;29.80;;
76155;SDS011;64906;51.290;7.348;2023-02-20T05:58:51;49.58;;;30.35;;
76155;SDS011;64906;51.290;7.348;2023-02-20T06:01:18;49.67;;;30.17;;
76155;SDS011;64906;51.290;7.348;2023-02-20T06:03:46;50.90;;;28.95;;
76155;SDS011;64906;51.290;7.348;2023-02-20T06:06:12;51.03;;;29.70;;
76155;SDS011;64906;51.290;7.348;2023-02-20T06:08:38;48.35;;;29.95;;
76155;SDS011;64906;51.290;7.348;2023-02-20T06:11:04;50.42;;;30.42;;
76155;SDS011;64906;51.290;7.348;2023-02-20T06:13:31;52.45;;;28.02;;
76155;SDS011;64906;51.290;7.348;2023-02-20T06:15:56;49.05;;;28.02;;
76155;SDS011;64906;51.290;7.348;2023-02-20T06:18:23;48.60;;;28.80;;
76155;SDS011;64906;51.290;7.348;2023-02-20T06:20:48;51.17;;;28.83;;
76155;SDS011;64906;51.290;7.348;2023-02-20T06:23:14;48.28;;;27.52;;
76155;SDS011;64906;51.290;7.348;2023-02-20T06:25:40;48.30;;;28.95;;
76155;SDS011;64906;51.290;7.348;2023-02-20T06:28:06;46.72;;;28.63;;
76155;SDS011;64906;51.290;7.348;2023-02-20T06:30:32;50.15;;;28.73;;
76155;SDS011;64906;51.290;7.348;2023-02-20T06:32:58;48.05;;;27.95;;
76155;SDS011;64906;51.290;7.348;2023-02-20T06:35:24;47.35;;;28.55;;
76155;SDS011;64906;51.290;7.348;2023-02-20T06:37:49;46.58;;;27.20;;
76155;SDS011;64906;51.290;7.348;2023-02-20T06:40:15;48.67;;;28.38;;
76155;SDS011;64906;51.290;7.348;2023-02-20T06:42:41;42.20;;;27.13;;
76155;SDS011;64906;51.290;7.348;2023-02-20T06:45:07;52.17;;;28.52;;
76155;SDS011;64906;51.290;7.348;2023-02-20T06:47:35;46.65;;;28.50;;
76155;SDS011;64906;51.290;7.348;2023-02-20T06:50:02;47.42;;;27.55;;
76155;SDS011;64906;51.290;7.348;2023-02-20T06:52:28;48.25;;;28.15;;
76155;SDS011;64906;51.290;7.348;2023-02-20T06:54:54;45.03;;;27.98;;
76155;SDS011;64906;51.290;7.348;2023-02-20T06:57:21;46.63;;;28.33;;
76155;SDS011;64906;51.290;7.348;2023-02-20T06:59:47;44.72;;;28.08;;
76155;SDS011;64906;51.290;7.348;2023-02-20T07:02:14;47.17;;;28.15;;
76155;SDS011;64906;51.290;7.348;2023-02-20T07:04:41;48.72;;;27.80;;
76155;SDS011;64906;51.290;7.348;2023-02-20T07:07:07;45.85;;;26.42;;
76155;SDS011;64906;51.290;7.348;2023-02-20T07:09:35;48.22;;;27.60;;
76155;SDS011;64906;51.290;7.348;2023-02-20T07:12:01;47.97;;;27.52;;
76155;SDS011;64906;51.290;7.348;2023-02-20T07:14:27;43.53;;;26.55;;
76155;SDS011;64906;51.290;7.348;2023-02-20T07:16:52;47.13;;;27.60;;
76155;SDS011;64906;51.290;7.348;2023-02-20T07:19:18;49.95;;;28.52;;
76155;SDS011;64906;51.290;7.348;2023-02-20T07:21:47;47.70;;;27.88;;
76155;SDS011;64906;51.290;7.348;2023-02-20T07:24:13;42.10;;;26.48;;
76155;SDS011;64906;51.290;7.348;2023-02-20T07:26:38;51.13;;;27.40;;
76155;SDS011;64906;51.290;7.348;2023-02-20T07:29:05;44.47;;;26.08;;
76155;SDS011;64906;51.290;7.348;2023-02-20T07:31:31;45.25;;;27.08;;
76155;SDS011;64906;51.290;7.348;2023-02-20T07:33:57;42.60;;;25.75;;
76155;SDS011;64906;51.290;7.348;2023-02-20T07:36:23;49.55;;;27.00;;
76155;SDS011;64906;51.290;7.348;2023-02-20T07:38:57;47.60;;;26.77;;
76155;SDS011;64906;51.290;7.348;2023-02-20T07:41:25;43.58;;;25.90;;
76155;SDS011;64906;51.290;7.348;2023-02-20T07:44:01;44.63;;;26.58;;
76155;SDS011;64906;51.290;7.348;2023-02-20T07:46:27;45.50;;;26.40;;
76155;SDS011;64906;51.290;7.348;2023-02-20T07:48:59;43.17;;;25.25;;
76155;SDS011;64906;51.290;7.348;2023-02-20T07:51:28;41.88;;;26.92;;
76155;SDS011;64906;51.290;7.348;2023-02-20T07:53:55;44.50;;;25.67;;
76155;SDS011;64906;51.290;7.348;2023-02-20T07:56:21;44.92;;;25.63;;
76155;SDS011;64906;51.290;7.348;2023-02-20T07:58:48;44.35;;;25.83;;
76155;SDS011;64906;51.290;7.348;2023-02-20T08:01:14;46.40;;;26.88;;
76155;SDS011;64906;51.290;7.348;2023-02-20T08:03:41;45.33;;;24.83;;
76155;SDS011;64906;51.290;7.348;2023-02-20T08:06:08;49.38;;;27.13;;
76155;SDS011;64906;51.290;7.348;2023-02-20T08:08:34;47.65;;;26.63;;
76155;SDS011;64906;51.290;7.348;2023-02-20T08:10:59;45.22;;;25.73;;
76155;SDS011;64906;51.290;7.348;2023-02-20T08:13:25;44.72;;;24.67;;
76155;SDS011;64906;51.290;7.348;2023-02-20T08:15:51;40.50;;;25.25;;
76155;SDS011;64906;51.290;7.348;2023-02-20T08:18:18;42.65;;;26.35;;
76155;SDS011;64906;51.290;7.348;2023-02-20T08:20:44;42.08;;;25.30;;
76155;SDS011;64906;51.290;7.348;2023-02-20T08:23:20;44.88;;;26.42;;
76155;SDS011;64906;51.290;7.348;2023-02-20T08:25:48;43.53;;;25.58;;
76155;SDS011;64906;51.290;7.348;2023-02-20T08:28:14;41.83;;;25.67;;
76155;SDS011;64906;51.290;7.348;2023-02-20T08:30:40;42.05;;;25.08;;
76155;SDS011;64906;51.290;7.348;2023-02-20T08:33:08;41.22;;;26.25;;
76155;SDS011;64906;51.290;7.348;2023-02-20T08:35:47;43.58;;;26.48;;
76155;SDS011;64906;51.290;7.348;2023-02-20T08:40:49;49.05;;;28.35;;
76155;SDS011;64906;51.290;7.348;2023-02-20T08:43:15;50.17;;;29.92;;
76155;SDS011;64906;51.290;7.348;2023-02-20T08:45:41;51.90;;;30.92;;
76155;SDS011;64906;51.290;7.348;2023-02-20T08:48:07;60.13;;;31.33;;
76155;SDS011;64906;51.290;7.348;2023-02-20T08:50:33;61.05;;;33.97;;
76155;SDS011;64906;51.290;7.348;2023-02-20T08:52:59;59.17;;;34.50;;
76155;SDS011;64906;51.290;7.348;2023-02-20T08:55:25;57.70;;;34.90;;
76155;SDS011;64906;51.290;7.348;2023-02-20T08:57:50;56.13;;;34.13;;
76155;SDS011;64906;51.290;7.348;2023-02-20T09:00:19;67.30;;;35.67;;
76155;SDS011;64906;51.290;7.348;2023-02-20T09:02:46;64.70;;;37.60;;
76155;SDS011;64906;51.290;7.348;2023-02-20T09:05:12;67.57;;;36.45;;
76155;SDS011;64906;51.290;7.348;2023-02-20T09:07:38;69.03;;;38.13;;
76155;SDS011;64906;51.290;7.348;2023-02-20T09:10:05;73.38;;;40.40;;
76155;SDS011;64906;51.290;7.348;2023-02-20T09:12:34;69.68;;;39.13;;
76155;SDS011;64906;51.290;7.348;2023-02-20T09:15:01;80.72;;;41.95;;
76155;SDS011;64906;51.290;7.348;2023-02-20T09:17:31;74.93;;;41.05;;
76155;SDS011;64906;51.290;7.348;2023-02-20T09:19:57;76.70;;;39.72;;
76155;SDS011;64906;51.290;7.348;2023-02-20T09:22:23;78.95;;;41.88;;
76155;SDS011;64906;51.290;7.348;2023-02-20T09:24:51;80.47;;;40.92;;
76155;SDS011;64906;51.290;7.348;2023-02-20T09:27:19;81.20;;;42.95;;
76155;SDS011;64906;51.290;7.348;2023-02-20T09:29:45;79.80;;;43.47;;
76155;SDS011;64906;51.290;7.348;2023-02-20T09:32:12;79.43;;;44.03;;
76155;SDS011;64906;51.290;7.348;2023-02-20T09:34:39;85.60;;;45.92;;
76155;SDS011;64906;51.290;7.348;2023-02-20T09:37:07;81.45;;;42.78;;
76155;SDS011;64906;51.290;7.348;2023-02-20T09:39:34;78.28;;;43.92;;
76155;SDS011;64906;51.290;7.348;2023-02-20T09:42:09;85.07;;;45.38;;
76155;SDS011;64906;51.290;7.348;2023-02-20T09:47:24;93.47;;;41.13;;
76155;SDS011;64906;51.290;7.348;2023-02-20T09:49:59;86.43;;;42.47;;
76155;SDS011;64906;51.290;7.348;2023-02-20T09:52:27;86.30;;;38.88;;
76155;SDS011;64906;51.290;7.348;2023-02-20T10:01:03;100.88;;;38.67;;
76155;SDS011;64906;51.290;7.348;2023-02-20T10:03:42;94.95;;;38.65;;
76155;SDS011;64906;51.290;7.348;2023-02-20T10:06:16;89.65;;;37.15;;
76155;SDS011;64906;51.290;7.348;2023-02-20T10:08:46;108.65;;;42.28;;
76155;SDS011;64906;51.290;7.348;2023-02-20T10:14:16;109.20;;;36.22;;
76155;SDS011;64906;51.290;7.348;2023-02-20T10:17:02;103.05;;;31.02;;
76155;SDS011;64906;51.290;7.348;2023-02-20T10:22:17;104.78;;;30.80;;
76155;SDS011;64906;51.290;7.348;2023-02-20T10:31:24;101.38;;;28.50;;
76155;SDS011;64906;51.290;7.348;2023-02-20T10:33:45;94.95;;;25.50;;
76155;SDS011;64906;51.290;7.348;2023-02-20T10:36:15;112.20;;;24.17;;
76155;SDS011;64906;51.290;7.348;2023-02-20T10:41:50;111.72;;;20.85;;
76155;SDS011;64906;51.290;7.348;2023-02-20T10:44:28;96.80;;;19.73;;
76155;SDS011;64906;51.290;7.348;2023-02-20T10:47:05;111.57;;;20.80;;
76155;SDS011;64906;51.290;7.348;2023-02-20T10:49:43;113.97;;;20.67;;
76155;SDS011;64906;51.290;7.348;2023-02-20T10:52:21;128.77;;;20.77;;
76155;SDS011;64906;51.290;7.348;2023-02-20T10:57:55;90.72;;;16.98;;
76155;SDS011;64906;51.290;7.348;2023-02-20T11:00:35;123.13;;;17.67;;
76155;SDS011;64906;51.290;7.348;2023-02-20T11:03:29;113.28;;;17.98;;
76155;SDS011;64906;51.290;7.348;2023-02-20T11:05:58;124.20;;;18.27;;
76155;SDS011;64906;51.290;7.348;2023-02-20T11:08:27;99.35;;;16.83;;
76155;SDS011;64906;51.290;7.348;2023-02-20T11:10:58;112.60;;;17.42;;
76155;SDS011;64906;51.290;7.348;2023-02-20T11:13:30;115.82;;;19.30;;
76155;SDS011;64906;51.290;7.348;2023-02-20T11:15:56;126.65;;;26.65;;
76155;SDS011;64906;51.290;7.348;2023-02-20T11:18:24;128.48;;;30.27;;
76155;SDS011;64906;51.290;7.348;2023-02-20T11:20:54;130.07;;;32.10;;
76155;SDS011;64906;51.290;7.348;2023-02-20T11:23:34;119.63;;;31.67;;
76155;SDS011;64906;51.290;7.348;2023-02-20T11:31:27;115.50;;;32.28;;
76155;SDS011;64906;51.290;7.348;2023-02-20T11:33:53;118.18;;;31.08;;
76155;SDS011;64906;51.290;7.348;2023-02-20T11:36:22;114.97;;;32.97;;
76155;SDS011;64906;51.290;7.348;2023-02-20T11:39:01;112.30;;;32.55;;
76155;SDS011;64906;51.290;7.348;2023-02-20T11:41:37;117.85;;;32.25;;
76155;SDS011;64906;51.290;7.348;2023-02-20T11:46:37;103.90;;;32.05;;
76155;SDS011;64906;51.290;7.348;2023-02-20T11:49:09;101.22;;;32.10;;
76155;SDS011;64906;51.290;7.348;2023-02-20T11:51:47;115.15;;;34.17;;
76155;SDS011;64906;51.290;7.348;2023-02-20T11:54:15;99.00;;;31.23;;
76155;SDS011;64906;51.290;7.348;2023-02-20T11:59:39;119.10;;;34.40;;
76155;SDS011;64906;51.290;7.348;2023-02-20T12:02:10;98.13;;;32.50;;
76155;SDS011;64906;51.290;7.348;2023-02-20T12:07:34;99.47;;;31.02;;
76155;SDS011;64906;51.290;7.348;2023-02-20T12:13:06;107.28;;;32.05;;
76155;SDS011;64906;51.290;7.348;2023-02-20T12:15:38;110.68;;;33.17;;
76155;SDS011;64906;51.290;7.348;2023-02-20T12:29:02;83.63;;;32.95;;
76155;SDS011;64906;51.290;7.348;2023-02-20T12:43:45;85.95;;;32.15;;
76155;SDS011;64906;51.290;7.348;2023-02-20T12:51:13;89.68;;;34.53;;
76155;SDS011;64906;51.290;7.348;2023-02-20T12:56:37;101.20;;;33.47;;
76155;SDS011;64906;51.290;7.348;2023-02-20T12:59:27;92.85;;;33.97;;
76155;SDS011;64906;51.290;7.348;2023-02-20T13:01:54;93.45;;;33.83;;
76155;SDS011;64906;51.290;7.348;2023-02-20T13:04:41;83.95;;;33.72;;
76155;SDS011;64906;51.290;7.348;2023-02-20T13:08:06;94.05;;;35.15;;
76155;SDS011;64906;51.290;7.348;2023-02-20T13:10:21;81.07;;;33.85;;
76155;SDS011;64906;51.290;7.348;2023-02-20T13:12:50;85.65;;;35.25;;
76155;SDS011;64906;51.290;7.348;2023-02-20T13:18:11;83.80;;;34.08;;
76155;SDS011;64906;51.290;7.348;2023-02-20T13:21:03;81.75;;;33.50;;
76155;SDS011;64906;51.290;7.348;2023-02-20T13:23:35;74.93;;;33.45;;
76155;SDS011;64906;51.290;7.348;2023-02-20T13:26:03;81.40;;;33.30;;
76155;SDS011;64906;51.290;7.348;2023-02-20T13:28:51;83.05;;;33.03;;
76155;SDS011;64906;51.290;7.348;2023-02-20T13:31:22;87.97;;;34.47;;
76155;SDS011;64906;51.290;7.348;2023-02-20T13:47:03;85.72;;;35.17;;
76155;SDS011;64906;51.290;7.348;2023-02-20T13:57:45;80.30;;;32.53;;
76155;SDS011;64906;51.290;7.348;2023-02-20T14:00:58;68.53;;;32.25;;
76155;SDS011;64906;51.290;7.348;2023-02-20T14:03:17;81.60;;;32.97;;
76155;SDS011;64906;51.290;7.348;2023-02-20T14:05:59;82.35;;;33.50;;
76155;SDS011;64906;51.290;7.348;2023-02-20T14:08:36;70.50;;;33.03;;
76155;SDS011;64906;51.290;7.348;2023-02-20T14:14:00;75.60;;;32.50;;
76155;SDS011;64906;51.290;7.348;2023-02-20T14:16:34;77.50;;;32.25;;
76155;SDS011;64906;51.290;7.348;2023-02-20T14:19:13;83.00;;;33.05;;
76155;SDS011;64906;51.290;7.348;2023-02-20T14:21:50;79.65;;;32.63;;
76155;SDS011;64906;51.290;7.348;2023-02-20T14:24:18;71.57;;;32.03;;
76155;SDS011;64906;51.290;7.348;2023-02-20T14:26:46;75.55;;;32.28;;
76155;SDS011;64906;51.290;7.348;2023-02-20T14:31:52;83.82;;;33.95;;
76155;SDS011;64906;51.290;7.348;2023-02-20T14:34:28;76.88;;;32.72;;
76155;SDS011;64906;51.290;7.348;2023-02-20T14:37:02;69.25;;;32.55;;
76155;SDS011;64906;51.290;7.348;2023-02-20T14:42:22;81.43;;;31.58;;
76155;SDS011;64906;51.290;7.348;2023-02-20T14:44:59;78.75;;;33.03;;
76155;SDS011;64906;51.290;7.348;2023-02-20T14:47:27;74.75;;;32.25;;
76155;SDS011;64906;51.290;7.348;2023-02-20T14:49:58;77.05;;;31.50;;
76155;SDS011;64906;51.290;7.348;2023-02-20T14:52:42;76.05;;;31.95;;
76155;SDS011;64906;51.290;7.348;2023-02-20T14:55:14;74.25;;;32.00;;
76155;SDS011;64906;51.290;7.348;2023-02-20T14:57:41;74.22;;;31.73;;
76155;SDS011;64906;51.290;7.348;2023-02-20T15:00:09;82.93;;;31.52;;
76155;SDS011;64906;51.290;7.348;2023-02-20T15:02:41;66.43;;;31.20;;
76155;SDS011;64906;51.290;7.348;2023-02-20T15:05:12;67.32;;;32.05;;
76155;SDS011;64906;51.290;7.348;2023-02-20T15:07:42;67.90;;;31.40;;
76155;SDS011;64906;51.290;7.348;2023-02-20T15:13:02;66.15;;;32.38;;
76155;SDS011;64906;51.290;7.348;2023-02-20T15:15:33;72.05;;;31.85;;
76155;SDS011;64906;51.290;7.348;2023-02-20T15:18:05;65.25;;;30.85;;
76155;SDS011;64906;51.290;7.348;2023-02-20T15:20:45;70.07;;;31.77;;
76155;SDS011;64906;51.290;7.348;2023-02-20T15:25:57;67.45;;;32.08;;
76155;SDS011;64906;51.290;7.348;2023-02-20T15:30:59;62.78;;;30.45;;
76155;SDS011;64906;51.290;7.348;2023-02-20T15:33:55;65.78;;;29.55;;
76155;SDS011;64906;51.290;7.348;2023-02-20T15:36:21;66.15;;;30.95;;
76155;SDS011;64906;51.290;7.348;2023-02-20T15:38:53;68.07;;;29.05;;
76155;SDS011;64906;51.290;7.348;2023-02-20T15:41:20;65.82;;;30.80;;
76155;SDS011;64906;51.290;7.348;2023-02-20T15:43:48;61.22;;;30.85;;
76155;SDS011;64906;51.290;7.348;2023-02-20T15:46:15;66.45;;;29.92;;
76155;SDS011;64906;51.290;7.348;2023-02-20T15:48:41;66.90;;;31.13;;
76155;SDS011;64906;51.290;7.348;2023-02-20T15:51:08;61.03;;;29.70;;
76155;SDS011;64906;51.290;7.348;2023-02-20T15:53:35;69.90;;;30.33;;
76155;SDS011;64906;51.290;7.348;2023-02-20T15:56:02;62.42;;;30.00;;
76155;SDS011;64906;51.290;7.348;2023-02-20T15:58:35;69.82;;;31.08;;
76155;SDS011;64906;51.290;7.348;2023-02-20T16:01:05;67.85;;;30.50;;
76155;SDS011;64906;51.290;7.348;2023-02-20T16:03:31;64.57;;;30.00;;
76155;SDS011;64906;51.290;7.348;2023-02-20T16:05:57;66.45;;;30.33;;
76155;SDS011;64906;51.290;7.348;2023-02-20T16:08:24;68.43;;;30.13;;
76155;SDS011;64906;51.290;7.348;2023-02-20T16:10:51;65.30;;;27.90;;
76155;SDS011;64906;51.290;7.348;2023-02-20T16:16:44;62.55;;;31.10;;
76155;SDS011;64906;51.290;7.348;2023-02-20T16:19:21;67.43;;;29.75;;
76155;SDS011;64906;51.290;7.348;2023-02-20T16:21:48;69.97;;;28.95;;
76155;SDS011;64906;51.290;7.348;2023-02-20T16:24:14;66.25;;;30.58;;
76155;SDS011;64906;51.290;7.348;2023-02-20T16:26:41;65.45;;;30.02;;
76155;SDS011;64906;51.290;7.348;2023-02-20T16:29:15;65.80;;;28.20;;
76155;SDS011;64906;51.290;7.348;2023-02-20T16:34:18;67.07;;;29.48;;
76155;SDS011;64906;51.290;7.348;2023-02-20T16:36:44;66.57;;;30.33;;
76155;SDS011;64906;51.290;7.348;2023-02-20T16:39:10;69.00;;;30.98;;
76155;SDS011;64906;51.290;7.348;2023-02-20T16:41:36;71.65;;;30.98;;
76155;SDS011;64906;51.290;7.348;2023-02-20T16:44:50;72.43;;;31.08;;
76155;SDS011;64906;51.290;7.348;2023-02-20T16:47:02;72.43;;;31.55;;
76155;SDS011;64906;51.290;7.348;2023-02-20T16:49:28;64.88;;;31.40;;
76155;SDS011;64906;51.290;7.348;2023-02-20T16:52:01;65.35;;;28.48;;
76155;SDS011;64906;51.290;7.348;2023-02-20T16:54:33;71.40;;;29.50;;
76155;SDS011;64906;51.290;7.348;2023-02-20T16:57:05;65.40;;;29.98;;
76155;SDS011;64906;51.290;7.348;2023-02-20T16:59:31;72.78;;;29.90;;
76155;SDS011;64906;51.290;7.348;2023-02-20T17:01:57;69.00;;;29.95;;
76155;SDS011;64906;51.290;7.348;2023-02-20T17:04:23;69.07;;;30.52;;
76155;SDS011;64906;51.290;7.348;2023-02-20T17:06:49;57.97;;;28.30;;
76155;SDS011;64906;51.290;7.348;2023-02-20T17:09:15;67.80;;;28.25;;
76155;SDS011;64906;51.290;7.348;2023-02-20T17:11:41;66.85;;;28.67;;
76155;SDS011;64906;51.290;7.348;2023-02-20T17:14:09;64.68;;;28.42;;
76155;SDS011;64906;51.290;7.348;2023-02-20T17:16:38;69.93;;;29.73;;
76155;SDS011;64906;51.290;7.348;2023-02-20T17:19:11;72.10;;;28.35;;
76155;SDS011;64906;51.290;7.348;2023-02-20T17:21:37;69.30;;;28.13;;